sensor_id;sensor_type;location;lat;lon;timestamp;P1;durP1;ratioP1;P2;durP2;ratioP2
10801;SDS011;5453;50.852;7.102;2023-04-06T00:02:22;10.05;;;3.40;;
10801;SDS011;5453;50.852;7.102;2023-04-06T00:04:54;6.35;;;3.03;;
10801;SDS011;5453;50.852;7.102;2023-04-06T00:07:26;6.43;;;2.90;;
10801;SDS011;5453;50.852;7.102;2023-04-06T00:10:01;5.68;;;2.97;;
10801;SDS011;5453;50.852;7.102;2023-04-06T00:12:34;6.93;;;3.00;;
10801;SDS011;5453;50.852;7.102;2023-04-06T00:15:07;6.05;;;3.10;;
10801;SDS011;5453;50.852;7.102;2023-04-06T00:17:40;5.95;;;3.08;;
10801;SDS011;5453;50.852;7.102;2023-04-06T00:20:12;6.20;;;3.60;;
10801;SDS011;5453;50.852;7.102;2023-04-06T00:22:44;6.72;;;3.38;;
10801;SDS011;5453;50.852;7.102;2023-04-06T00:25:18;6.30;;;2.95;;
10801;SDS011;5453;50.852;7.102;2023-04-06T00:27:50;5.22;;;3.15;;
10801;SDS011;5453;50.852;7.102;2023-04-06T00:30:22;7.28;;;3.35;;
10801;SDS011;5453;50.852;7.102;2023-04-06T00:32:55;6.35;;;3.33;;
10801;SDS011;5453;50.852;7.102;2023-04-06T00:35:27;6.53;;;3.15;;
10801;SDS011;5453;50.852;7.102;2023-04-06T00:37:59;5.30;;;2.85;;
10801;SDS011;5453;50.852;7.102;2023-04-06T00:40:33;9.10;;;3.67;;
10801;SDS011;5453;50.852;7.102;2023-04-06T00:43:05;7.10;;;3.50;;
10801;SDS011;5453;50.852;7.102;2023-04-06T00:45:39;8.52;;;3.47;;
10801;SDS011;5453;50.852;7.102;2023-04-06T00:48:12;6.47;;;3.55;;
10801;SDS011;5453;50.852;7.102;2023-04-06T00:50:44;6.22;;;3.33;;
10801;SDS011;5453;50.852;7.102;2023-04-06T00:53:16;6.35;;;3.38;;
10801;SDS011;5453;50.852;7.102;2023-04-06T00:55:50;8.02;;;3.55;;
10801;SDS011;5453;50.852;7.102;2023-04-06T00:58:23;6.97;;;3.75;;
10801;SDS011;5453;50.852;7.102;2023-04-06T01:01:04;7.68;;;3.40;;
10801;SDS011;5453;50.852;7.102;2023-04-06T01:03:37;4.88;;;2.90;;
10801;SDS011;5453;50.852;7.102;2023-04-06T01:06:10;10.60;;;4.00;;
10801;SDS011;5453;50.852;7.102;2023-04-06T01:08:44;6.28;;;3.35;;
10801;SDS011;5453;50.852;7.102;2023-04-06T01:11:24;7.57;;;3.88;;
10801;SDS011;5453;50.852;7.102;2023-04-06T01:13:57;7.80;;;3.90;;
10801;SDS011;5453;50.852;7.102;2023-04-06T01:16:32;6.80;;;3.60;;
10801;SDS011;5453;50.852;7.102;2023-04-06T01:19:11;7.32;;;3.45;;
10801;SDS011;5453;50.852;7.102;2023-04-06T01:21:49;8.38;;;3.80;;
10801;SDS011;5453;50.852;7.102;2023-04-06T01:24:50;6.38;;;2.83;;
10801;SDS011;5453;50.852;7.102;2023-04-06T01:27:30;8.60;;;3.42;;
10801;SDS011;5453;50.852;7.102;2023-04-06T01:30:12;6.55;;;3.00;;
10801;SDS011;5453;50.852;7.102;2023-04-06T01:33:07;6.25;;;3.25;;
10801;SDS011;5453;50.852;7.102;2023-04-06T01:35:59;5.82;;;2.90;;
10801;SDS011;5453;50.852;7.102;2023-04-06T01:38:32;6.65;;;3.28;;
10801;SDS011;5453;50.852;7.102;2023-04-06T01:41:06;7.15;;;3.28;;
10801;SDS011;5453;50.852;7.102;2023-04-06T01:43:50;7.35;;;3.35;;
10801;SDS011;5453;50.852;7.102;2023-04-06T01:46:26;6.47;;;3.38;;
10801;SDS011;5453;50.852;7.102;2023-04-06T01:48:58;6.28;;;3.50;;
10801;SDS011;5453;50.852;7.102;2023-04-06T01:51:42;5.55;;;3.38;;
10801;SDS011;5453;50.852;7.102;2023-04-06T01:54:17;6.22;;;3.10;;
10801;SDS011;5453;50.852;7.102;2023-04-06T01:57:09;6.85;;;3.10;;
10801;SDS011;5453;50.852;7.102;2023-04-06T01:59:56;6.70;;;3.42;;
10801;SDS011;5453;50.852;7.102;2023-04-06T02:02:43;7.60;;;3.42;;
10801;SDS011;5453;50.852;7.102;2023-04-06T02:05:22;8.77;;;3.50;;
10801;SDS011;5453;50.852;7.102;2023-04-06T02:07:57;6.50;;;3.38;;
10801;SDS011;5453;50.852;7.102;2023-04-06T02:10:38;6.30;;;3.28;;
10801;SDS011;5453;50.852;7.102;2023-04-06T02:13:21;6.95;;;3.38;;
10801;SDS011;5453;50.852;7.102;2023-04-06T02:15:56;7.72;;;3.38;;
10801;SDS011;5453;50.852;7.102;2023-04-06T02:18:30;7.03;;;3.22;;
10801;SDS011;5453;50.852;7.102;2023-04-06T02:21:03;9.07;;;3.28;;
10801;SDS011;5453;50.852;7.102;2023-04-06T02:23:35;7.43;;;3.40;;
10801;SDS011;5453;50.852;7.102;2023-04-06T02:26:07;7.75;;;3.38;;
10801;SDS011;5453;50.852;7.102;2023-04-06T02:28:41;7.03;;;3.28;;
10801;SDS011;5453;50.852;7.102;2023-04-06T02:31:13;7.78;;;3.58;;
10801;SDS011;5453;50.852;7.102;2023-04-06T02:33:48;8.32;;;3.60;;
10801;SDS011;5453;50.852;7.102;2023-04-06T02:36:20;6.72;;;3.33;;
10801;SDS011;5453;50.852;7.102;2023-04-06T02:38:53;6.68;;;3.30;;
10801;SDS011;5453;50.852;7.102;2023-04-06T02:41:26;7.63;;;3.75;;
10801;SDS011;5453;50.852;7.102;2023-04-06T02:44:01;8.90;;;3.85;;
10801;SDS011;5453;50.852;7.102;2023-04-06T02:46:42;6.95;;;3.47;;
10801;SDS011;5453;50.852;7.102;2023-04-06T02:49:14;7.53;;;3.28;;
10801;SDS011;5453;50.852;7.102;2023-04-06T02:51:47;7.40;;;3.70;;
10801;SDS011;5453;50.852;7.102;2023-04-06T02:54:27;7.60;;;3.78;;
10801;SDS011;5453;50.852;7.102;2023-04-06T02:57:00;7.35;;;4.05;;
10801;SDS011;5453;50.852;7.102;2023-04-06T02:59:44;6.35;;;3.95;;
10801;SDS011;5453;50.852;7.102;2023-04-06T03:02:24;8.07;;;4.15;;
10801;SDS011;5453;50.852;7.102;2023-04-06T03:05:02;6.32;;;3.25;;
10801;SDS011;5453;50.852;7.102;2023-04-06T03:07:40;6.72;;;3.30;;
10801;SDS011;5453;50.852;7.102;2023-04-06T03:10:18;6.22;;;2.95;;
10801;SDS011;5453;50.852;7.102;2023-04-06T03:12:52;6.90;;;3.15;;
10801;SDS011;5453;50.852;7.102;2023-04-06T03:15:28;7.30;;;3.47;;
10801;SDS011;5453;50.852;7.102;2023-04-06T03:18:13;9.57;;;4.28;;
10801;SDS011;5453;50.852;7.102;2023-04-06T03:20:49;8.63;;;3.72;;
10801;SDS011;5453;50.852;7.102;2023-04-06T03:23:24;8.40;;;3.60;;
10801;SDS011;5453;50.852;7.102;2023-04-06T03:26:01;10.00;;;4.10;;
10801;SDS011;5453;50.852;7.102;2023-04-06T03:28:34;7.32;;;3.33;;
10801;SDS011;5453;50.852;7.102;2023-04-06T03:31:10;7.75;;;3.78;;
10801;SDS011;5453;50.852;7.102;2023-04-06T03:33:55;8.63;;;3.28;;
10801;SDS011;5453;50.852;7.102;2023-04-06T03:36:31;8.20;;;3.95;;
10801;SDS011;5453;50.852;7.102;2023-04-06T03:41:43;6.60;;;3.22;;
10801;SDS011;5453;50.852;7.102;2023-04-06T03:44:38;6.45;;;3.33;;
10801;SDS011;5453;50.852;7.102;2023-04-06T03:47:12;7.60;;;4.15;;
10801;SDS011;5453;50.852;7.102;2023-04-06T03:49:44;8.45;;;3.65;;
10801;SDS011;5453;50.852;7.102;2023-04-06T03:52:19;6.78;;;3.58;;
10801;SDS011;5453;50.852;7.102;2023-04-06T03:54:55;7.68;;;3.85;;
10801;SDS011;5453;50.852;7.102;2023-04-06T03:57:27;6.22;;;3.17;;
10801;SDS011;5453;50.852;7.102;2023-04-06T04:00:01;6.63;;;3.60;;
10801;SDS011;5453;50.852;7.102;2023-04-06T04:02:44;7.78;;;3.83;;
10801;SDS011;5453;50.852;7.102;2023-04-06T04:05:16;7.95;;;4.05;;
10801;SDS011;5453;50.852;7.102;2023-04-06T04:07:49;6.30;;;3.03;;
10801;SDS011;5453;50.852;7.102;2023-04-06T04:10:25;6.22;;;3.25;;
10801;SDS011;5453;50.852;7.102;2023-04-06T04:12:57;6.50;;;3.75;;
10801;SDS011;5453;50.852;7.102;2023-04-06T04:15:30;7.35;;;3.50;;
10801;SDS011;5453;50.852;7.102;2023-04-06T04:18:04;8.32;;;3.75;;
10801;SDS011;5453;50.852;7.102;2023-04-06T04:20:39;7.18;;;3.92;;
10801;SDS011;5453;50.852;7.102;2023-04-06T04:23:13;8.52;;;3.78;;
10801;SDS011;5453;50.852;7.102;2023-04-06T04:25:46;7.28;;;3.53;;
10801;SDS011;5453;50.852;7.102;2023-04-06T04:28:18;6.70;;;3.70;;
10801;SDS011;5453;50.852;7.102;2023-04-06T04:30:51;7.43;;;3.75;;
10801;SDS011;5453;50.852;7.102;2023-04-06T04:33:24;7.22;;;3.92;;
10801;SDS011;5453;50.852;7.102;2023-04-06T04:36:00;6.05;;;3.22;;
10801;SDS011;5453;50.852;7.102;2023-04-06T04:38:38;6.75;;;3.65;;
10801;SDS011;5453;50.852;7.102;2023-04-06T04:41:11;7.28;;;3.33;;
10801;SDS011;5453;50.852;7.102;2023-04-06T04:43:46;6.78;;;3.65;;
10801;SDS011;5453;50.852;7.102;2023-04-06T04:46:24;6.53;;;3.53;;
10801;SDS011;5453;50.852;7.102;2023-04-06T04:48:59;9.07;;;3.47;;
10801;SDS011;5453;50.852;7.102;2023-04-06T04:51:33;9.35;;;4.10;;
10801;SDS011;5453;50.852;7.102;2023-04-06T04:54:20;7.32;;;3.38;;
10801;SDS011;5453;50.852;7.102;2023-04-06T04:56:52;7.38;;;3.70;;
10801;SDS011;5453;50.852;7.102;2023-04-06T04:59:39;8.00;;;3.50;;
10801;SDS011;5453;50.852;7.102;2023-04-06T05:02:20;7.00;;;3.42;;
10801;SDS011;5453;50.852;7.102;2023-04-06T05:05:14;7.22;;;3.65;;
10801;SDS011;5453;50.852;7.102;2023-04-06T05:07:47;6.65;;;3.30;;
10801;SDS011;5453;50.852;7.102;2023-04-06T05:10:31;8.00;;;3.67;;
10801;SDS011;5453;50.852;7.102;2023-04-06T05:13:06;8.20;;;4.10;;
10801;SDS011;5453;50.852;7.102;2023-04-06T05:15:39;7.00;;;3.47;;
10801;SDS011;5453;50.852;7.102;2023-04-06T05:18:27;7.10;;;3.60;;
10801;SDS011;5453;50.852;7.102;2023-04-06T05:21:02;7.75;;;3.83;;
10801;SDS011;5453;50.852;7.102;2023-04-06T05:23:46;6.85;;;3.30;;
10801;SDS011;5453;50.852;7.102;2023-04-06T05:26:18;7.07;;;3.75;;
10801;SDS011;5453;50.852;7.102;2023-04-06T05:28:52;7.82;;;3.63;;
10801;SDS011;5453;50.852;7.102;2023-04-06T05:31:26;6.63;;;3.35;;
10801;SDS011;5453;50.852;7.102;2023-04-06T05:33:58;8.05;;;4.03;;
10801;SDS011;5453;50.852;7.102;2023-04-06T05:36:37;8.27;;;4.07;;
10801;SDS011;5453;50.852;7.102;2023-04-06T05:39:19;6.72;;;3.70;;
10801;SDS011;5453;50.852;7.102;2023-04-06T05:41:54;7.78;;;3.72;;
10801;SDS011;5453;50.852;7.102;2023-04-06T05:44:36;8.85;;;3.85;;
10801;SDS011;5453;50.852;7.102;2023-04-06T05:47:14;7.68;;;3.72;;
10801;SDS011;5453;50.852;7.102;2023-04-06T05:49:49;8.48;;;3.38;;
10801;SDS011;5453;50.852;7.102;2023-04-06T05:52:31;7.63;;;3.58;;
10801;SDS011;5453;50.852;7.102;2023-04-06T05:55:03;7.25;;;3.70;;
10801;SDS011;5453;50.852;7.102;2023-04-06T05:57:37;8.20;;;3.83;;
10801;SDS011;5453;50.852;7.102;2023-04-06T06:00:10;8.10;;;4.07;;
10801;SDS011;5453;50.852;7.102;2023-04-06T06:02:48;10.38;;;3.85;;
10801;SDS011;5453;50.852;7.102;2023-04-06T06:05:25;6.95;;;3.33;;
10801;SDS011;5453;50.852;7.102;2023-04-06T06:08:03;8.07;;;4.53;;
10801;SDS011;5453;50.852;7.102;2023-04-06T06:10:35;8.68;;;4.15;;
10801;SDS011;5453;50.852;7.102;2023-04-06T06:13:12;7.97;;;4.00;;
10801;SDS011;5453;50.852;7.102;2023-04-06T06:15:44;7.40;;;4.03;;
10801;SDS011;5453;50.852;7.102;2023-04-06T06:18:17;8.68;;;4.40;;
10801;SDS011;5453;50.852;7.102;2023-04-06T06:20:52;9.60;;;4.75;;
10801;SDS011;5453;50.852;7.102;2023-04-06T06:23:25;8.35;;;4.15;;
10801;SDS011;5453;50.852;7.102;2023-04-06T06:25:58;7.30;;;3.60;;
10801;SDS011;5453;50.852;7.102;2023-04-06T06:28:32;7.63;;;3.60;;
10801;SDS011;5453;50.852;7.102;2023-04-06T06:31:05;6.50;;;3.45;;
10801;SDS011;5453;50.852;7.102;2023-04-06T06:33:37;8.73;;;4.00;;
10801;SDS011;5453;50.852;7.102;2023-04-06T06:36:09;9.90;;;4.20;;
10801;SDS011;5453;50.852;7.102;2023-04-06T06:38:43;7.03;;;3.85;;
10801;SDS011;5453;50.852;7.102;2023-04-06T06:41:17;7.97;;;4.15;;
10801;SDS011;5453;50.852;7.102;2023-04-06T06:43:49;6.72;;;3.95;;
10801;SDS011;5453;50.852;7.102;2023-04-06T06:46:22;7.18;;;3.90;;
10801;SDS011;5453;50.852;7.102;2023-04-06T06:48:54;5.97;;;3.55;;
10801;SDS011;5453;50.852;7.102;2023-04-06T06:51:26;7.05;;;3.70;;
10801;SDS011;5453;50.852;7.102;2023-04-06T06:54:00;9.20;;;4.97;;
10801;SDS011;5453;50.852;7.102;2023-04-06T06:56:32;8.57;;;3.83;;
10801;SDS011;5453;50.852;7.102;2023-04-06T06:59:06;9.70;;;4.55;;
10801;SDS011;5453;50.852;7.102;2023-04-06T07:01:39;8.98;;;4.40;;
10801;SDS011;5453;50.852;7.102;2023-04-06T07:04:11;7.97;;;4.05;;
10801;SDS011;5453;50.852;7.102;2023-04-06T07:06:43;8.05;;;4.35;;
10801;SDS011;5453;50.852;7.102;2023-04-06T07:09:17;9.57;;;4.40;;
10801;SDS011;5453;50.852;7.102;2023-04-06T07:11:49;8.85;;;4.85;;
10801;SDS011;5453;50.852;7.102;2023-04-06T07:14:22;8.02;;;4.70;;
10801;SDS011;5453;50.852;7.102;2023-04-06T07:16:55;8.43;;;4.40;;
10801;SDS011;5453;50.852;7.102;2023-04-06T07:19:28;7.70;;;4.18;;
10801;SDS011;5453;50.852;7.102;2023-04-06T07:22:01;8.00;;;4.47;;
10801;SDS011;5453;50.852;7.102;2023-04-06T07:24:35;9.73;;;4.45;;
10801;SDS011;5453;50.852;7.102;2023-04-06T07:27:07;9.02;;;4.30;;
10801;SDS011;5453;50.852;7.102;2023-04-06T07:29:39;8.48;;;4.57;;
10801;SDS011;5453;50.852;7.102;2023-04-06T07:32:12;8.95;;;4.60;;
10801;SDS011;5453;50.852;7.102;2023-04-06T07:34:45;8.77;;;4.43;;
10801;SDS011;5453;50.852;7.102;2023-04-06T07:37:17;7.70;;;4.22;;
10801;SDS011;5453;50.852;7.102;2023-04-06T07:39:52;11.23;;;4.30;;
10801;SDS011;5453;50.852;7.102;2023-04-06T07:42:25;11.02;;;4.55;;
10801;SDS011;5453;50.852;7.102;2023-04-06T07:44:58;7.43;;;4.13;;
10801;SDS011;5453;50.852;7.102;2023-04-06T07:47:30;9.95;;;4.95;;
10801;SDS011;5453;50.852;7.102;2023-04-06T07:50:03;12.20;;;4.82;;
10801;SDS011;5453;50.852;7.102;2023-04-06T07:52:37;8.60;;;4.93;;
10801;SDS011;5453;50.852;7.102;2023-04-06T07:55:12;8.07;;;4.35;;
10801;SDS011;5453;50.852;7.102;2023-04-06T07:57:44;10.00;;;4.25;;
10801;SDS011;5453;50.852;7.102;2023-04-06T08:00:16;9.40;;;4.35;;
10801;SDS011;5453;50.852;7.102;2023-04-06T08:02:50;8.70;;;4.65;;
10801;SDS011;5453;50.852;7.102;2023-04-06T08:05:22;7.57;;;3.72;;
10801;SDS011;5453;50.852;7.102;2023-04-06T08:07:54;8.13;;;4.80;;
10801;SDS011;5453;50.852;7.102;2023-04-06T08:10:28;8.32;;;4.53;;
10801;SDS011;5453;50.852;7.102;2023-04-06T08:13:00;9.73;;;4.75;;
10801;SDS011;5453;50.852;7.102;2023-04-06T08:15:33;9.73;;;4.88;;
10801;SDS011;5453;50.852;7.102;2023-04-06T08:18:05;8.35;;;4.90;;
10801;SDS011;5453;50.852;7.102;2023-04-06T08:20:38;10.02;;;5.07;;
10801;SDS011;5453;50.852;7.102;2023-04-06T08:23:11;9.20;;;4.72;;
10801;SDS011;5453;50.852;7.102;2023-04-06T08:25:44;8.63;;;4.75;;
10801;SDS011;5453;50.852;7.102;2023-04-06T08:28:16;10.38;;;5.25;;
10801;SDS011;5453;50.852;7.102;2023-04-06T08:30:49;9.48;;;4.30;;
10801;SDS011;5453;50.852;7.102;2023-04-06T08:33:21;7.20;;;4.07;;
10801;SDS011;5453;50.852;7.102;2023-04-06T08:35:53;9.65;;;4.97;;
10801;SDS011;5453;50.852;7.102;2023-04-06T08:38:25;8.00;;;4.45;;
10801;SDS011;5453;50.852;7.102;2023-04-06T08:40:59;8.50;;;4.38;;
10801;SDS011;5453;50.852;7.102;2023-04-06T08:43:31;9.07;;;4.90;;
10801;SDS011;5453;50.852;7.102;2023-04-06T08:46:04;9.80;;;4.32;;
10801;SDS011;5453;50.852;7.102;2023-04-06T08:48:38;7.75;;;4.10;;
10801;SDS011;5453;50.852;7.102;2023-04-06T08:51:12;6.97;;;3.95;;
10801;SDS011;5453;50.852;7.102;2023-04-06T08:53:44;7.95;;;4.88;;
10801;SDS011;5453;50.852;7.102;2023-04-06T08:56:17;9.00;;;4.85;;
10801;SDS011;5453;50.852;7.102;2023-04-06T09:01:25;9.40;;;4.22;;
10801;SDS011;5453;50.852;7.102;2023-04-06T09:03:58;8.25;;;4.20;;
10801;SDS011;5453;50.852;7.102;2023-04-06T09:06:31;10.65;;;5.35;;
10801;SDS011;5453;50.852;7.102;2023-04-06T09:09:04;10.07;;;4.78;;
10801;SDS011;5453;50.852;7.102;2023-04-06T09:11:47;9.00;;;4.93;;
10801;SDS011;5453;50.852;7.102;2023-04-06T09:14:33;9.75;;;5.47;;
10801;SDS011;5453;50.852;7.102;2023-04-06T09:17:06;10.65;;;4.53;;
10801;SDS011;5453;50.852;7.102;2023-04-06T09:19:44;13.02;;;6.00;;
10801;SDS011;5453;50.852;7.102;2023-04-06T09:22:17;17.33;;;4.78;;
10801;SDS011;5453;50.852;7.102;2023-04-06T09:24:50;9.30;;;4.03;;
10801;SDS011;5453;50.852;7.102;2023-04-06T09:30:04;11.60;;;5.85;;
10801;SDS011;5453;50.852;7.102;2023-04-06T09:32:44;10.63;;;4.38;;
10801;SDS011;5453;50.852;7.102;2023-04-06T09:37:51;8.70;;;3.88;;
10801;SDS011;5453;50.852;7.102;2023-04-06T09:40:25;11.10;;;4.85;;
10801;SDS011;5453;50.852;7.102;2023-04-06T09:43:00;11.88;;;5.80;;
10801;SDS011;5453;50.852;7.102;2023-04-06T09:45:37;12.15;;;6.10;;
10801;SDS011;5453;50.852;7.102;2023-04-06T09:48:09;13.35;;;5.03;;
10801;SDS011;5453;50.852;7.102;2023-04-06T09:50:41;11.38;;;4.97;;
10801;SDS011;5453;50.852;7.102;2023-04-06T09:53:14;9.18;;;4.35;;
10801;SDS011;5453;50.852;7.102;2023-04-06T09:55:48;9.27;;;4.75;;
10801;SDS011;5453;50.852;7.102;2023-04-06T09:58:24;11.82;;;5.22;;
10801;SDS011;5453;50.852;7.102;2023-04-06T10:01:00;9.85;;;4.22;;
10801;SDS011;5453;50.852;7.102;2023-04-06T10:03:41;9.68;;;4.80;;
10801;SDS011;5453;50.852;7.102;2023-04-06T10:06:23;11.25;;;3.67;;
10801;SDS011;5453;50.852;7.102;2023-04-06T10:08:58;9.52;;;4.07;;
10801;SDS011;5453;50.852;7.102;2023-04-06T10:11:33;9.45;;;3.63;;
10801;SDS011;5453;50.852;7.102;2023-04-06T10:14:07;12.10;;;4.68;;
10801;SDS011;5453;50.852;7.102;2023-04-06T10:16:39;8.45;;;3.42;;
10801;SDS011;5453;50.852;7.102;2023-04-06T10:19:13;7.68;;;3.55;;
10801;SDS011;5453;50.852;7.102;2023-04-06T10:21:52;8.15;;;3.75;;
10801;SDS011;5453;50.852;7.102;2023-04-06T10:24:26;12.38;;;5.20;;
10801;SDS011;5453;50.852;7.102;2023-04-06T10:26:58;10.85;;;4.47;;
10801;SDS011;5453;50.852;7.102;2023-04-06T10:29:42;9.10;;;3.90;;
10801;SDS011;5453;50.852;7.102;2023-04-06T10:32:16;10.93;;;4.60;;
10801;SDS011;5453;50.852;7.102;2023-04-06T10:34:48;10.23;;;3.92;;
10801;SDS011;5453;50.852;7.102;2023-04-06T10:37:21;12.23;;;4.75;;
10801;SDS011;5453;50.852;7.102;2023-04-06T10:39:54;9.07;;;3.85;;
10801;SDS011;5453;50.852;7.102;2023-04-06T10:42:36;11.85;;;5.20;;
10801;SDS011;5453;50.852;7.102;2023-04-06T10:45:18;10.45;;;4.25;;
10801;SDS011;5453;50.852;7.102;2023-04-06T10:47:52;11.35;;;4.60;;
10801;SDS011;5453;50.852;7.102;2023-04-06T10:50:25;9.60;;;4.18;;
10801;SDS011;5453;50.852;7.102;2023-04-06T10:53:01;9.20;;;3.58;;
10801;SDS011;5453;50.852;7.102;2023-04-06T10:55:34;12.60;;;3.88;;
10801;SDS011;5453;50.852;7.102;2023-04-06T10:58:10;10.73;;;4.10;;
10801;SDS011;5453;50.852;7.102;2023-04-06T11:00:44;8.32;;;3.83;;
10801;SDS011;5453;50.852;7.102;2023-04-06T11:03:17;10.23;;;4.57;;
10801;SDS011;5453;50.852;7.102;2023-04-06T11:05:50;12.07;;;5.10;;
10801;SDS011;5453;50.852;7.102;2023-04-06T11:08:24;15.27;;;7.13;;
10801;SDS011;5453;50.852;7.102;2023-04-06T11:11:04;17.30;;;7.50;;
10801;SDS011;5453;50.852;7.102;2023-04-06T11:16:13;21.50;;;9.13;;
10801;SDS011;5453;50.852;7.102;2023-04-06T11:18:48;15.13;;;6.18;;
10801;SDS011;5453;50.852;7.102;2023-04-06T11:21:32;13.45;;;5.97;;
10801;SDS011;5453;50.852;7.102;2023-04-06T11:24:09;9.65;;;4.45;;
10801;SDS011;5453;50.852;7.102;2023-04-06T11:26:43;9.13;;;3.80;;
10801;SDS011;5453;50.852;7.102;2023-04-06T11:29:18;8.25;;;3.28;;
10801;SDS011;5453;50.852;7.102;2023-04-06T11:34:34;8.48;;;3.20;;
10801;SDS011;5453;50.852;7.102;2023-04-06T11:37:09;9.38;;;3.75;;
10801;SDS011;5453;50.852;7.102;2023-04-06T11:39:43;9.30;;;3.58;;
10801;SDS011;5453;50.852;7.102;2023-04-06T11:42:21;13.52;;;5.15;;
10801;SDS011;5453;50.852;7.102;2023-04-06T11:44:54;10.32;;;4.53;;
10801;SDS011;5453;50.852;7.102;2023-04-06T11:47:29;9.40;;;4.10;;
10801;SDS011;5453;50.852;7.102;2023-04-06T11:50:06;11.38;;;4.05;;
10801;SDS011;5453;50.852;7.102;2023-04-06T11:52:40;10.93;;;4.47;;
10801;SDS011;5453;50.852;7.102;2023-04-06T11:55:14;10.77;;;4.57;;
10801;SDS011;5453;50.852;7.102;2023-04-06T11:57:47;11.60;;;4.78;;
10801;SDS011;5453;50.852;7.102;2023-04-06T12:00:21;10.23;;;4.25;;
10801;SDS011;5453;50.852;7.102;2023-04-06T12:02:55;10.73;;;4.07;;
10801;SDS011;5453;50.852;7.102;2023-04-06T12:05:29;12.95;;;5.90;;
10801;SDS011;5453;50.852;7.102;2023-04-06T12:08:02;11.10;;;4.85;;
10801;SDS011;5453;50.852;7.102;2023-04-06T12:10:34;9.93;;;4.05;;
10801;SDS011;5453;50.852;7.102;2023-04-06T12:13:06;11.50;;;4.63;;
10801;SDS011;5453;50.852;7.102;2023-04-06T12:15:38;9.77;;;4.10;;
10801;SDS011;5453;50.852;7.102;2023-04-06T12:18:12;8.07;;;4.07;;
10801;SDS011;5453;50.852;7.102;2023-04-06T12:20:44;10.02;;;4.22;;
10801;SDS011;5453;50.852;7.102;2023-04-06T12:23:16;9.57;;;4.05;;
10801;SDS011;5453;50.852;7.102;2023-04-06T12:25:50;8.20;;;3.83;;
10801;SDS011;5453;50.852;7.102;2023-04-06T12:28:22;10.20;;;4.18;;
10801;SDS011;5453;50.852;7.102;2023-04-06T12:30:57;8.38;;;3.70;;
10801;SDS011;5453;50.852;7.102;2023-04-06T12:33:30;7.95;;;3.40;;
10801;SDS011;5453;50.852;7.102;2023-04-06T12:36:02;7.68;;;3.88;;
10801;SDS011;5453;50.852;7.102;2023-04-06T12:38:35;7.60;;;3.45;;
10801;SDS011;5453;50.852;7.102;2023-04-06T12:41:09;8.55;;;3.38;;
10801;SDS011;5453;50.852;7.102;2023-04-06T12:43:42;6.60;;;3.15;;
10801;SDS011;5453;50.852;7.102;2023-04-06T12:46:15;7.78;;;4.07;;
10801;SDS011;5453;50.852;7.102;2023-04-06T12:48:49;7.18;;;3.20;;
10801;SDS011;5453;50.852;7.102;2023-04-06T12:51:26;6.55;;;3.10;;
10801;SDS011;5453;50.852;7.102;2023-04-06T12:53:59;7.65;;;3.55;;
10801;SDS011;5453;50.852;7.102;2023-04-06T12:56:31;7.13;;;3.10;;
10801;SDS011;5453;50.852;7.102;2023-04-06T12:59:04;9.52;;;4.07;;
10801;SDS011;5453;50.852;7.102;2023-04-06T13:01:36;8.63;;;3.65;;
10801;SDS011;5453;50.852;7.102;2023-04-06T13:04:10;6.50;;;2.83;;
10801;SDS011;5453;50.852;7.102;2023-04-06T13:06:42;10.00;;;4.65;;
10801;SDS011;5453;50.852;7.102;2023-04-06T13:09:15;8.50;;;4.15;;
10801;SDS011;5453;50.852;7.102;2023-04-06T13:11:47;7.97;;;3.38;;
10801;SDS011;5453;50.852;7.102;2023-04-06T13:14:19;11.93;;;4.75;;
10801;SDS011;5453;50.852;7.102;2023-04-06T13:16:51;9.77;;;4.57;;
10801;SDS011;5453;50.852;7.102;2023-04-06T13:19:25;8.63;;;3.83;;
10801;SDS011;5453;50.852;7.102;2023-04-06T13:21:57;8.70;;;4.25;;
10801;SDS011;5453;50.852;7.102;2023-04-06T13:24:29;10.98;;;4.03;;
10801;SDS011;5453;50.852;7.102;2023-04-06T13:27:02;6.60;;;3.40;;
10801;SDS011;5453;50.852;7.102;2023-04-06T13:29:34;6.78;;;2.97;;
10801;SDS011;5453;50.852;7.102;2023-04-06T13:32:07;6.75;;;3.65;;
10801;SDS011;5453;50.852;7.102;2023-04-06T13:34:42;8.07;;;3.53;;
10801;SDS011;5453;50.852;7.102;2023-04-06T13:37:15;8.68;;;4.18;;
10801;SDS011;5453;50.852;7.102;2023-04-06T13:39:47;7.78;;;3.30;;
10801;SDS011;5453;50.852;7.102;2023-04-06T13:42:19;10.50;;;3.88;;
10801;SDS011;5453;50.852;7.102;2023-04-06T13:44:51;10.43;;;4.18;;
10801;SDS011;5453;50.852;7.102;2023-04-06T13:47:24;8.00;;;3.60;;
10801;SDS011;5453;50.852;7.102;2023-04-06T13:49:57;10.85;;;3.95;;
10801;SDS011;5453;50.852;7.102;2023-04-06T13:52:29;7.90;;;3.40;;
10801;SDS011;5453;50.852;7.102;2023-04-06T13:55:02;9.73;;;3.97;;
10801;SDS011;5453;50.852;7.102;2023-04-06T13:57:35;7.38;;;3.78;;
10801;SDS011;5453;50.852;7.102;2023-04-06T14:00:08;6.78;;;3.50;;
10801;SDS011;5453;50.852;7.102;2023-04-06T14:02:43;7.70;;;3.22;;
10801;SDS011;5453;50.852;7.102;2023-04-06T14:05:16;7.00;;;2.92;;
10801;SDS011;5453;50.852;7.102;2023-04-06T14:07:49;6.55;;;3.13;;
10801;SDS011;5453;50.852;7.102;2023-04-06T14:10:21;8.23;;;3.42;;
10801;SDS011;5453;50.852;7.102;2023-04-06T14:12:53;8.57;;;3.72;;
10801;SDS011;5453;50.852;7.102;2023-04-06T14:15:26;8.50;;;3.60;;
10801;SDS011;5453;50.852;7.102;2023-04-06T14:17:59;8.55;;;3.90;;
10801;SDS011;5453;50.852;7.102;2023-04-06T14:20:33;6.72;;;3.30;;
10801;SDS011;5453;50.852;7.102;2023-04-06T14:23:05;6.32;;;3.17;;
10801;SDS011;5453;50.852;7.102;2023-04-06T14:25:37;5.60;;;2.92;;
10801;SDS011;5453;50.852;7.102;2023-04-06T14:28:10;7.25;;;3.13;;
10801;SDS011;5453;50.852;7.102;2023-04-06T14:30:42;6.85;;;3.40;;
10801;SDS011;5453;50.852;7.102;2023-04-06T14:33:14;7.78;;;3.38;;
10801;SDS011;5453;50.852;7.102;2023-04-06T14:35:48;7.82;;;3.10;;
10801;SDS011;5453;50.852;7.102;2023-04-06T14:38:20;5.85;;;2.95;;
10801;SDS011;5453;50.852;7.102;2023-04-06T14:40:52;6.60;;;2.80;;
10801;SDS011;5453;50.852;7.102;2023-04-06T14:43:25;6.32;;;3.10;;
10801;SDS011;5453;50.852;7.102;2023-04-06T14:45:59;8.38;;;3.65;;
10801;SDS011;5453;50.852;7.102;2023-04-06T14:48:32;7.20;;;3.30;;
10801;SDS011;5453;50.852;7.102;2023-04-06T14:51:05;10.02;;;4.15;;
10801;SDS011;5453;50.852;7.102;2023-04-06T14:53:37;10.20;;;4.32;;
10801;SDS011;5453;50.852;7.102;2023-04-06T14:56:09;7.60;;;3.03;;
10801;SDS011;5453;50.852;7.102;2023-04-06T14:58:41;8.57;;;4.30;;
10801;SDS011;5453;50.852;7.102;2023-04-06T15:01:14;9.00;;;4.07;;
10801;SDS011;5453;50.852;7.102;2023-04-06T15:03:46;9.55;;;4.40;;
10801;SDS011;5453;50.852;7.102;2023-04-06T15:06:19;7.28;;;3.85;;
10801;SDS011;5453;50.852;7.102;2023-04-06T15:08:51;8.52;;;4.47;;
10801;SDS011;5453;50.852;7.102;2023-04-06T15:11:25;9.18;;;3.88;;
10801;SDS011;5453;50.852;7.102;2023-04-06T15:13:57;9.32;;;3.90;;
10801;SDS011;5453;50.852;7.102;2023-04-06T15:16:31;6.50;;;3.33;;
10801;SDS011;5453;50.852;7.102;2023-04-06T15:19:03;8.63;;;3.95;;
10801;SDS011;5453;50.852;7.102;2023-04-06T15:21:36;9.07;;;3.63;;
10801;SDS011;5453;50.852;7.102;2023-04-06T15:24:08;7.43;;;3.65;;
10801;SDS011;5453;50.852;7.102;2023-04-06T15:26:40;6.95;;;3.05;;
10801;SDS011;5453;50.852;7.102;2023-04-06T15:29:12;8.25;;;3.53;;
10801;SDS011;5453;50.852;7.102;2023-04-06T15:31:44;5.63;;;3.35;;
10801;SDS011;5453;50.852;7.102;2023-04-06T15:34:17;7.15;;;3.60;;
10801;SDS011;5453;50.852;7.102;2023-04-06T15:36:50;6.68;;;3.05;;
10801;SDS011;5453;50.852;7.102;2023-04-06T15:39:22;6.85;;;3.28;;
10801;SDS011;5453;50.852;7.102;2023-04-06T15:41:54;5.13;;;2.53;;
10801;SDS011;5453;50.852;7.102;2023-04-06T15:44:27;5.95;;;2.92;;
10801;SDS011;5453;50.852;7.102;2023-04-06T15:46:59;7.65;;;3.28;;
10801;SDS011;5453;50.852;7.102;2023-04-06T15:49:31;6.13;;;3.13;;
10801;SDS011;5453;50.852;7.102;2023-04-06T15:52:05;8.98;;;3.30;;
10801;SDS011;5453;50.852;7.102;2023-04-06T15:54:37;7.85;;;3.65;;
10801;SDS011;5453;50.852;7.102;2023-04-06T15:57:10;6.80;;;3.33;;
10801;SDS011;5453;50.852;7.102;2023-04-06T15:59:42;5.72;;;3.35;;